Aérodrome :
LOGIN :

S'inscrire | Disclaimer

   EN    FR    IT 

 










Légende :    VFR   VFR Marginal   IFR   IFR Intensif   IFR Très Intensif
Visi : 
Plafond : 
>= 8 km
>= 3000ft
5 à 8 km
1000 à 3000 ft
1500m à 5 km
500 à 1000 ft
800 à 1500m
200 à 500 ft
< 800m
< 200 ft
Symboles :   Orages  Brouillard  Fortes neiges  Fortes précipitations  Vent > 20 kt
SIGMETs :   Divers  Orages  Givrage  Turbulence  Onde Orograph.  Cendres Volcan.







- Altitude de l'aérodrome : 299 ft
- Code IATA : EDM
- Voir les cartes d'approche


LFRI - La Roche Sur Yon - Les Ajoncs

DERNIER METAR :
  • 180630Z AUTO 22005KT 9999 -RA FEW023 OVC100 18/17 Q1017 TEMPO RA BKN006

METARs EXPIRÉS :
  • 180600Z AUTO 22003KT CAVOK 17/17 Q1017 TEMPO RA BKN006
  • 180530Z AUTO VRB02KT 9999 -RA FEW018/// OVC110/// ///TCU 17/16 Q1016 TEMPO RA BKN006
  • 180500Z AUTO 19003KT 9999 -RA FEW039/// SCT072/// BKN098/// ///TCU 17/16 Q1017
  • 180430Z AUTO 27007KT 230V320 9999 RA FEW008/// SCT021/// BKN043/// ///TCU 17/16 Q1016
  • 180400Z AUTO 26010KT 230V290 9999 RA SCT006/// SCT011/// BKN039/// ///TCU 18/17 Q1017

TAF TAF LFRI
Valide du 18 à 06h jusqu'au 19 à 06h UTC


180500Z 1806/1906 27006KT 9999 SCT030 BKN050
TEMPO 1806/1809 RA BKN006
Pas de NOTAMs connus pour ce terrain.



MET'MAP, la Météo Aéronautique d'un coup d'oeil ! - Copyright ORBIFLY Décembre 2007 - Disclaimer

ORBIFLY MET'MAP TEAM :

Programmation & Développement : Alexandra Zaïnal
Conception & Développement : Baudouin d'Aumeries
Co-Programmation & Développement : Marc-Olivier Méhu
Soutien technique & logistique : Manuel Goepfert

Contact : metmap@orbifly.com




SOURCES & CREDITS :

   NOAA